createdAt,value
2023-05-13T00:01:03.230Z,3.00
2023-05-13T00:03:32.601Z,2.80
2023-05-13T00:06:01.438Z,2.60
2023-05-13T00:08:30.025Z,2.00
2023-05-13T00:10:58.294Z,2.37
2023-05-13T00:13:26.826Z,2.40
2023-05-13T00:15:56.401Z,3.03
2023-05-13T00:18:24.795Z,1.90
2023-05-13T00:20:53.137Z,3.57
2023-05-13T00:23:21.363Z,2.10
2023-05-13T00:25:49.684Z,2.23
2023-05-13T00:28:18.214Z,2.00
2023-05-13T00:30:46.653Z,2.97
2023-05-13T00:33:16.388Z,5.20
2023-05-13T00:35:45.067Z,2.37
2023-05-13T00:38:13.334Z,1.53
2023-05-13T00:40:43.307Z,1.63
2023-05-13T00:43:12.236Z,1.50
2023-05-13T00:45:41.109Z,2.40
2023-05-13T00:48:10.382Z,1.73
2023-05-13T00:50:42.263Z,2.57
2023-05-13T00:53:10.993Z,3.00
2023-05-13T00:55:44.388Z,1.97
2023-05-13T00:58:13.868Z,1.80
2023-05-13T01:01:01.256Z,1.63
2023-05-13T01:03:35.074Z,1.67
2023-05-13T01:06:09.039Z,1.83
2023-05-13T01:08:41.955Z,1.40
2023-05-13T01:11:13.908Z,1.80
2023-05-13T01:13:44.411Z,1.80
2023-05-13T01:16:14.930Z,2.33
2023-05-13T01:18:46.495Z,1.47
2023-05-13T01:21:16.944Z,1.90
2023-05-13T01:23:46.663Z,2.70
2023-05-13T01:26:14.966Z,5.10
2023-05-13T01:28:43.168Z,1.63
2023-05-13T01:31:11.700Z,1.80
2023-05-13T01:33:40.637Z,2.70
2023-05-13T01:36:10.478Z,2.33
2023-05-13T01:38:40.614Z,1.57
2023-05-13T01:41:10.342Z,2.37
2023-05-13T01:43:38.709Z,1.73
2023-05-13T01:46:13.321Z,1.40
2023-05-13T01:48:42.462Z,2.37
2023-05-13T01:51:10.854Z,2.07
2023-05-13T01:53:39.070Z,1.70
2023-05-13T01:56:11.558Z,1.37
2023-05-13T01:58:39.800Z,1.17
2023-05-13T02:01:08.126Z,1.03
2023-05-13T02:03:36.664Z,1.50
2023-05-13T02:06:05.535Z,1.90
2023-05-13T02:08:33.788Z,1.73
2023-05-13T02:11:01.998Z,2.50
2023-05-13T02:13:32.239Z,5.27
2023-05-13T02:16:00.941Z,1.80
2023-05-13T02:18:29.187Z,2.00
2023-05-13T02:20:57.647Z,7.53
2023-05-13T02:23:25.857Z,1.63
2023-05-13T02:25:54.145Z,2.00
2023-05-13T02:28:22.346Z,1.57
2023-05-13T02:30:51.933Z,1.23
2023-05-13T02:33:20.220Z,1.50
2023-05-13T02:35:48.468Z,1.80
2023-05-13T02:38:17.102Z,1.50
2023-05-13T02:40:45.827Z,1.77
2023-05-13T02:43:14.131Z,1.57
2023-05-13T02:45:52.140Z,3.97
2023-05-13T02:48:20.352Z,1.60
2023-05-13T02:50:48.710Z,2.40
2023-05-13T02:53:16.961Z,2.13
2023-05-13T02:55:51.587Z,2.37
2023-05-13T02:58:19.786Z,1.60
2023-05-13T03:00:49.198Z,3.13
2023-05-13T03:03:18.973Z,2.30
2023-05-13T03:05:47.431Z,1.83
2023-05-13T03:08:16.060Z,1.20
2023-05-13T03:10:44.224Z,1.90
2023-05-13T03:13:13.800Z,2.40
2023-05-13T03:15:44.266Z,1.43
2023-05-13T03:18:13.161Z,2.00
2023-05-13T03:20:43.168Z,1.40
2023-05-13T03:23:11.368Z,1.83
2023-05-13T03:25:39.622Z,1.90
2023-05-13T03:28:10.119Z,2.70
2023-05-13T03:30:43.611Z,2.13
2023-05-13T03:33:16.554Z,1.90
2023-05-13T03:35:48.548Z,1.53
2023-05-13T03:38:18.734Z,2.90
2023-05-13T03:40:49.827Z,2.20
2023-05-13T03:43:18.858Z,2.00
2023-05-13T03:45:52.890Z,2.37
2023-05-13T03:48:23.415Z,1.93
2023-05-13T03:50:54.043Z,2.30
2023-05-13T03:53:22.646Z,1.93
2023-05-13T03:55:51.320Z,2.80
2023-05-13T03:58:21.734Z,1.77
2023-05-13T04:00:50.420Z,5.50
2023-05-13T04:03:19.167Z,2.17
2023-05-13T04:05:47.938Z,2.60
2023-05-13T04:08:17.460Z,1.83
2023-05-13T04:10:45.907Z,2.83
2023-05-13T04:13:14.127Z,2.40
2023-05-13T04:15:42.386Z,2.90
2023-05-13T04:18:10.922Z,3.40
2023-05-13T04:20:39.591Z,3.50
2023-05-13T04:23:08.202Z,3.60
2023-05-13T04:25:38.251Z,2.83
2023-05-13T04:28:07.251Z,3.40
2023-05-13T04:30:44.257Z,3.37
2023-05-13T04:33:13.363Z,3.00
2023-05-13T04:35:44.589Z,4.33
2023-05-13T04:38:13.860Z,5.17
2023-05-13T04:40:44.693Z,4.43
2023-05-13T04:43:15.596Z,6.50
2023-05-13T04:45:49.213Z,5.43
2023-05-13T04:48:17.810Z,6.27
2023-05-13T04:50:47.559Z,5.70
2023-05-13T04:53:17.476Z,7.33
2023-05-13T04:55:49.696Z,5.93
2023-05-13T04:58:17.972Z,7.50
2023-05-13T05:00:46.530Z,8.10
2023-05-13T05:03:15.158Z,10.57
2023-05-13T05:05:43.723Z,8.73
2023-05-13T05:08:13.554Z,9.37
2023-05-13T05:10:42.234Z,8.30
2023-05-13T05:13:12.842Z,9.07
2023-05-13T05:15:41.787Z,9.23
2023-05-13T05:18:10.650Z,9.53
2023-05-13T05:20:41.015Z,7.67
2023-05-13T05:23:15.578Z,9.20
2023-05-13T05:25:44.253Z,7.90
2023-05-13T05:28:14.262Z,10.97
2023-05-13T05:30:44.542Z,9.80
2023-05-13T05:33:21.591Z,10.33
2023-05-13T05:35:57.717Z,12.10
2023-05-13T05:38:41.963Z,12.10
2023-05-13T05:41:11.639Z,12.60
2023-05-13T05:43:41.245Z,14.20
2023-05-13T05:46:10.069Z,17.40
2023-05-13T05:48:38.283Z,18.57
2023-05-13T05:51:07.085Z,15.77
2023-05-13T05:53:41.010Z,16.93
2023-05-13T05:56:11.189Z,19.13
2023-05-13T05:58:39.358Z,15.20
2023-05-13T06:01:10.074Z,13.40
2023-05-13T06:03:42.461Z,14.97
2023-05-13T06:06:11.031Z,16.40
2023-05-13T06:08:39.271Z,12.00
2023-05-13T06:11:09.237Z,16.13
2023-05-13T06:13:37.420Z,12.90
2023-05-13T06:16:07.717Z,13.90
2023-05-13T06:18:38.133Z,12.57
2023-05-13T06:21:06.509Z,14.57
2023-05-13T06:23:34.752Z,11.70
2023-05-13T06:26:02.952Z,14.90
2023-05-13T06:28:31.154Z,12.87
2023-05-13T06:30:59.378Z,12.60
2023-05-13T06:33:27.673Z,14.87
2023-05-13T06:35:59.698Z,14.90
2023-05-13T06:38:28.550Z,12.67
2023-05-13T06:40:59.386Z,13.60
2023-05-13T06:43:32.194Z,12.27
2023-05-13T06:46:05.878Z,11.13
2023-05-13T06:48:34.270Z,10.53
2023-05-13T06:51:05.245Z,11.20
2023-05-13T06:53:33.669Z,12.13
2023-05-13T06:56:02.939Z,14.17
2023-05-13T06:58:31.101Z,16.30
2023-05-13T07:00:59.422Z,12.80
2023-05-13T07:03:27.736Z,9.63
2023-05-13T07:05:56.025Z,11.10
2023-05-13T07:08:25.966Z,10.33
2023-05-13T07:10:54.178Z,10.67
2023-05-13T07:13:25.370Z,9.20
2023-05-13T07:15:57.314Z,8.37
2023-05-13T07:18:27.164Z,9.00
2023-05-13T07:20:57.598Z,7.63
2023-05-13T07:23:30.135Z,10.27
2023-05-13T07:25:59.904Z,8.43
2023-05-13T07:28:29.298Z,9.30
2023-05-13T07:30:58.824Z,9.80
2023-05-13T07:33:27.183Z,9.10
2023-05-13T07:36:02.148Z,8.70
2023-05-13T07:38:31.741Z,7.80
2023-05-13T07:41:00.181Z,5.13
2023-05-13T07:43:28.722Z,7.40
2023-05-13T07:45:57.116Z,7.63
2023-05-13T07:48:28.339Z,6.47
2023-05-13T07:50:57.797Z,6.40
2023-05-13T07:53:26.019Z,5.73
2023-05-13T07:55:55.659Z,6.47
2023-05-13T07:58:25.024Z,6.40
2023-05-13T08:00:55.673Z,5.47
2023-05-13T08:03:25.090Z,7.60
2023-05-13T08:05:53.411Z,6.77
2023-05-13T08:08:21.610Z,5.07
2023-05-13T08:10:49.836Z,7.37
2023-05-13T08:13:19.390Z,5.40
2023-05-13T08:15:47.669Z,6.57
2023-05-13T08:18:16.465Z,5.50
2023-05-13T08:20:44.814Z,4.33
2023-05-13T08:23:13.021Z,3.77
2023-05-13T08:25:41.223Z,4.23
2023-05-13T08:28:09.484Z,4.17
2023-05-13T08:30:40.779Z,5.33
2023-05-13T08:33:09.198Z,5.70
2023-05-13T08:35:37.511Z,3.87
2023-05-13T08:38:06.836Z,5.30
2023-05-13T08:40:35.320Z,6.10
2023-05-13T08:43:06.324Z,3.93
2023-05-13T08:45:34.672Z,2.80
2023-05-13T08:48:04.884Z,3.80
2023-05-13T08:50:33.711Z,3.20
2023-05-13T08:53:02.216Z,3.53
2023-05-13T08:55:30.452Z,3.60
2023-05-13T08:57:58.854Z,2.53
2023-05-13T09:00:27.224Z,3.93
2023-05-13T09:02:55.460Z,4.30
2023-05-13T09:05:25.805Z,4.03
2023-05-13T09:07:54.855Z,3.40
2023-05-13T09:10:23.203Z,3.83
2023-05-13T09:12:52.507Z,3.20
2023-05-13T09:15:22.202Z,4.20
2023-05-13T09:17:53.170Z,3.90
2023-05-13T09:20:22.343Z,3.60
2023-05-13T09:23:52.012Z,4.37
2023-05-13T09:26:29.709Z,5.10
2023-05-13T09:29:17.779Z,4.17
2023-05-13T09:31:46.479Z,6.83
2023-05-13T09:34:14.885Z,4.03
2023-05-13T09:36:43.195Z,6.00
2023-05-13T09:39:13.625Z,4.43
2023-05-13T09:41:43.674Z,4.20
2023-05-13T09:44:12.684Z,3.40
2023-05-13T09:46:43.493Z,4.10
2023-05-13T09:49:12.350Z,4.00
2023-05-13T09:51:40.534Z,4.73
2023-05-13T09:54:12.862Z,3.80
2023-05-13T09:56:43.889Z,4.77
2023-05-13T09:59:12.251Z,5.90
2023-05-13T10:01:40.713Z,5.07
2023-05-13T10:04:10.074Z,4.17
2023-05-13T10:06:38.901Z,3.50
2023-05-13T10:09:08.079Z,2.97
2023-05-13T10:11:37.091Z,2.33
2023-05-13T10:14:08.533Z,3.20
2023-05-13T10:16:37.060Z,2.90
2023-05-13T10:19:07.421Z,2.40
2023-05-13T10:21:37.000Z,3.57
2023-05-13T10:24:05.525Z,2.20
2023-05-13T10:26:34.409Z,4.30
2023-05-13T10:29:03.597Z,2.80
2023-05-13T10:31:33.468Z,3.00
2023-05-13T10:34:02.261Z,2.60
2023-05-13T10:36:41.305Z,2.40
2023-05-13T10:39:34.244Z,2.70
2023-05-13T10:42:36.551Z,3.23
2023-05-13T10:45:05.542Z,3.50
2023-05-13T10:47:36.178Z,4.83
2023-05-13T10:50:07.610Z,4.33
2023-05-13T10:52:48.049Z,6.50
2023-05-13T10:55:19.246Z,7.00
2023-05-13T10:58:10.091Z,6.63
2023-05-13T11:00:39.602Z,7.23
2023-05-13T11:03:14.021Z,6.93
2023-05-13T11:05:46.005Z,8.40
2023-05-13T11:08:15.816Z,9.67
2023-05-13T11:10:43.957Z,10.23
2023-05-13T11:13:25.636Z,9.93
2023-05-13T11:15:55.876Z,9.50
2023-05-13T11:18:32.157Z,9.70
2023-05-13T11:21:05.372Z,12.97
2023-05-13T11:23:34.952Z,12.97
2023-05-13T11:26:14.886Z,13.83
2023-05-13T11:29:00.678Z,14.03
2023-05-13T11:31:30.144Z,13.17
2023-05-13T11:34:13.361Z,11.77
2023-05-13T11:36:43.650Z,15.03
2023-05-13T11:39:14.266Z,16.10
2023-05-13T11:41:44.122Z,16.60
2023-05-13T11:44:13.881Z,14.37
2023-05-13T11:46:52.600Z,17.70
2023-05-13T11:49:39.594Z,17.43
2023-05-13T11:52:09.839Z,14.20
2023-05-13T11:54:46.516Z,16.77
2023-05-13T11:57:23.717Z,15.33
2023-05-13T11:59:57.078Z,17.23
2023-05-13T12:02:26.253Z,11.97
2023-05-13T12:04:56.413Z,14.50
2023-05-13T12:07:25.634Z,13.77
2023-05-13T12:09:55.115Z,19.47
2023-05-13T12:12:23.353Z,14.33
2023-05-13T12:14:52.873Z,13.90
2023-05-13T12:17:23.022Z,13.13
2023-05-13T12:20:12.968Z,15.53
2023-05-13T12:22:52.846Z,12.77
2023-05-13T12:25:47.866Z,11.57
2023-05-13T12:28:26.457Z,14.47
2023-05-13T12:30:57.240Z,13.53
2023-05-13T12:33:26.646Z,10.87
2023-05-13T12:36:16.325Z,14.17
2023-05-13T12:38:59.585Z,16.47
2023-05-13T12:41:29.929Z,11.90
2023-05-13T12:44:02.091Z,11.90
2023-05-13T12:46:30.516Z,11.63
2023-05-13T12:49:00.490Z,12.43
2023-05-13T12:51:30.852Z,11.03
2023-05-13T12:53:59.253Z,10.10
2023-05-13T12:56:28.226Z,10.90
2023-05-13T12:58:57.134Z,11.03
2023-05-13T13:01:27.447Z,9.07
2023-05-13T13:03:56.282Z,9.30
2023-05-13T13:06:25.134Z,8.97
2023-05-13T13:09:01.700Z,10.37
2023-05-13T13:11:33.340Z,7.40
2023-05-13T13:14:03.414Z,9.30
2023-05-13T13:16:31.948Z,7.50
2023-05-13T13:19:01.834Z,8.20
2023-05-13T13:21:31.911Z,10.33
2023-05-13T13:24:01.566Z,9.03
2023-05-13T13:26:29.981Z,6.47
2023-05-13T13:28:58.234Z,8.50
2023-05-13T13:31:26.349Z,7.67
2023-05-13T13:33:54.893Z,6.97
2023-05-13T13:36:24.910Z,7.10
2023-05-13T13:38:54.450Z,7.10
2023-05-13T13:41:25.620Z,6.90
2023-05-13T13:43:54.956Z,9.30
2023-05-13T13:46:26.443Z,11.80
2023-05-13T13:48:55.345Z,7.80
2023-05-13T13:51:23.673Z,9.30
2023-05-13T13:53:52.753Z,8.43
2023-05-13T13:56:21.448Z,7.90
2023-05-13T13:58:51.204Z,9.43
2023-05-13T14:01:20.431Z,10.33
2023-05-13T14:03:51.378Z,8.10
2023-05-13T14:06:20.163Z,7.47
2023-05-13T14:08:51.086Z,9.93
2023-05-13T14:11:22.224Z,9.07
2023-05-13T14:13:53.542Z,7.20
2023-05-13T14:16:22.999Z,9.37
2023-05-13T14:18:51.890Z,9.13
2023-05-13T14:21:21.878Z,7.13
2023-05-13T14:23:54.562Z,11.23
2023-05-13T14:26:22.806Z,5.53
2023-05-13T14:28:55.225Z,4.90
2023-05-13T14:31:26.139Z,5.13
2023-05-13T14:33:56.554Z,6.13
2023-05-13T14:36:29.067Z,5.20
2023-05-13T14:38:59.277Z,6.33
2023-05-13T14:41:29.578Z,6.80
2023-05-13T14:43:59.239Z,8.20
2023-05-13T14:46:28.550Z,6.80
2023-05-13T14:48:59.100Z,6.50
2023-05-13T14:51:32.579Z,8.63
2023-05-13T14:54:05.041Z,6.60
2023-05-13T14:56:39.489Z,7.00
2023-05-13T14:59:11.632Z,8.40
2023-05-13T15:01:41.360Z,9.73
2023-05-13T15:04:18.297Z,7.80
2023-05-13T15:06:47.050Z,10.10
2023-05-13T15:09:19.068Z,7.23
2023-05-13T15:11:48.279Z,7.77
2023-05-13T15:14:21.099Z,8.37
2023-05-13T15:16:51.012Z,10.33
2023-05-13T15:19:20.063Z,7.53
2023-05-13T15:21:50.026Z,8.73
2023-05-13T15:24:19.553Z,9.20
2023-05-13T15:26:50.579Z,7.87
2023-05-13T15:29:22.604Z,9.47
2023-05-13T15:31:54.448Z,9.60
2023-05-13T15:34:24.895Z,9.00
2023-05-13T15:36:53.514Z,8.47
2023-05-13T15:39:23.966Z,11.20
2023-05-13T15:41:52.190Z,9.07
2023-05-13T15:44:27.420Z,12.80
2023-05-13T15:46:56.016Z,10.17
2023-05-13T15:49:28.328Z,11.57
2023-05-13T15:51:57.778Z,9.30
2023-05-13T15:54:27.080Z,9.33
2023-05-13T15:56:59.025Z,8.67
2023-05-13T15:59:29.394Z,9.90
2023-05-13T16:01:58.687Z,12.83
2023-05-13T16:04:30.737Z,9.67
2023-05-13T16:06:59.978Z,9.47
2023-05-13T16:09:32.227Z,9.07
2023-05-13T16:12:02.166Z,9.70
2023-05-13T16:14:33.084Z,11.20
2023-05-13T16:17:02.438Z,11.90
2023-05-13T16:19:31.476Z,11.63
2023-05-13T16:22:08.602Z,9.70
2023-05-13T16:24:37.710Z,9.43
2023-05-13T16:27:07.001Z,10.60
2023-05-13T16:29:36.878Z,13.97
2023-05-13T16:32:06.873Z,10.30
2023-05-13T16:34:35.963Z,9.47
2023-05-13T16:37:06.390Z,8.80
2023-05-13T16:39:35.053Z,8.70
2023-05-13T16:42:05.353Z,8.33
2023-05-13T16:44:33.861Z,8.47
2023-05-13T16:47:04.470Z,7.47
2023-05-13T16:49:42.751Z,7.67
2023-05-13T16:52:14.999Z,9.40
2023-05-13T16:54:43.881Z,9.97
2023-05-13T16:57:12.755Z,7.97
2023-05-13T16:59:41.823Z,8.30
2023-05-13T17:02:11.914Z,7.77
2023-05-13T17:04:40.476Z,7.30
2023-05-13T17:07:09.402Z,7.50
2023-05-13T17:09:38.462Z,8.77
2023-05-13T17:12:09.183Z,7.70
2023-05-13T17:14:38.328Z,9.23
2023-05-13T17:17:08.390Z,10.43
2023-05-13T17:19:40.263Z,8.60
2023-05-13T17:22:10.636Z,7.93
2023-05-13T17:24:40.228Z,9.70
2023-05-13T17:27:10.369Z,10.50
2023-05-13T17:29:40.195Z,10.37
2023-05-13T17:32:10.105Z,11.43
2023-05-13T17:34:41.586Z,8.73
2023-05-13T17:37:20.596Z,10.67
2023-05-13T17:39:50.950Z,10.63
2023-05-13T17:42:19.971Z,11.63
2023-05-13T17:44:49.232Z,11.57
2023-05-13T17:47:22.120Z,13.93
2023-05-13T17:49:52.647Z,12.20
2023-05-13T17:52:21.671Z,14.13
2023-05-13T17:54:51.011Z,15.40
2023-05-13T17:57:20.206Z,16.20
2023-05-13T17:59:49.309Z,14.83
2023-05-13T18:02:18.364Z,13.67
2023-05-13T18:04:47.496Z,14.97
2023-05-13T18:07:17.982Z,14.00
2023-05-13T18:09:49.252Z,16.33
2023-05-13T18:12:19.128Z,13.70
2023-05-13T18:14:48.295Z,17.30
2023-05-13T18:17:17.411Z,17.83
2023-05-13T18:19:46.916Z,13.37
2023-05-13T18:22:17.512Z,16.47
2023-05-13T18:24:46.699Z,15.83
2023-05-13T18:27:15.862Z,18.13
2023-05-13T18:29:45.018Z,15.20
2023-05-13T18:32:14.126Z,14.03
2023-05-13T18:34:43.230Z,14.10
2023-05-13T18:37:12.444Z,15.67
2023-05-13T18:39:45.639Z,13.93
2023-05-13T18:42:14.917Z,16.20
2023-05-13T18:44:44.209Z,14.20
2023-05-13T18:47:13.425Z,14.00
2023-05-13T18:49:42.743Z,13.70
2023-05-13T18:52:12.167Z,16.17
2023-05-13T18:54:43.648Z,13.10
2023-05-13T18:57:13.071Z,13.00
2023-05-13T18:59:48.116Z,14.27
2023-05-13T19:02:18.022Z,13.90
2023-05-13T19:04:48.432Z,13.43
2023-05-13T19:07:20.835Z,13.63
2023-05-13T19:09:52.167Z,10.90
2023-05-13T19:12:23.167Z,15.00
2023-05-13T19:14:53.153Z,21.37
2023-05-13T19:17:22.890Z,16.90
2023-05-13T19:19:57.163Z,20.50
2023-05-13T19:22:28.537Z,18.10
2023-05-13T19:25:00.207Z,15.30
2023-05-13T19:27:29.782Z,20.97
2023-05-13T19:29:59.907Z,22.73
2023-05-13T19:32:32.682Z,16.60
2023-05-13T19:35:03.682Z,16.97
2023-05-13T19:37:33.522Z,18.43
2023-05-13T19:40:16.859Z,17.83
2023-05-13T19:42:46.867Z,17.93
2023-05-13T19:45:23.599Z,15.97
2023-05-13T19:47:53.506Z,14.00
2023-05-13T19:50:23.830Z,15.57
2023-05-13T19:52:54.823Z,19.20
2023-05-13T19:55:25.735Z,19.43
2023-05-13T19:57:56.756Z,17.17
2023-05-13T20:00:28.047Z,17.20
2023-05-13T20:02:59.282Z,18.90
2023-05-13T20:05:38.245Z,18.17
2023-05-13T20:08:11.697Z,16.40
2023-05-13T20:10:44.818Z,15.63
2023-05-13T20:13:15.992Z,16.87
2023-05-13T20:15:46.000Z,20.40
2023-05-13T20:18:16.424Z,18.97
2023-05-13T20:20:47.834Z,21.87
2023-05-13T20:23:20.306Z,21.97
2023-05-13T20:25:51.656Z,19.80
2023-05-13T20:28:22.033Z,24.33
2023-05-13T20:30:54.208Z,23.17
2023-05-13T20:33:25.885Z,18.90
2023-05-13T20:35:55.477Z,27.07
2023-05-13T20:38:33.111Z,18.97
2023-05-13T20:41:06.369Z,21.30
2023-05-13T20:43:39.094Z,30.57
2023-05-13T20:46:10.401Z,25.30
2023-05-13T20:48:48.551Z,19.77
2023-05-13T20:51:25.534Z,23.33
2023-05-13T20:53:56.546Z,24.37
2023-05-13T20:56:29.710Z,21.33
2023-05-13T20:59:05.038Z,22.50
2023-05-13T21:01:35.308Z,22.57
2023-05-13T21:04:07.177Z,23.47
2023-05-13T21:06:36.931Z,23.27
2023-05-13T21:09:06.575Z,26.10
2023-05-13T21:11:37.708Z,23.97
2023-05-13T21:14:06.977Z,22.83
2023-05-13T21:16:36.440Z,26.30
2023-05-13T21:19:04.924Z,22.47
2023-05-13T21:21:33.623Z,25.43
2023-05-13T21:24:01.975Z,25.23
2023-05-13T21:26:30.386Z,21.03
2023-05-13T21:29:00.331Z,23.90
2023-05-13T21:31:29.524Z,20.40
2023-05-13T21:33:57.819Z,25.10
2023-05-13T21:36:26.219Z,23.00
2023-05-13T21:38:54.619Z,22.90
2023-05-13T21:41:23.071Z,32.57
2023-05-13T21:43:51.667Z,22.30
2023-05-13T21:46:21.217Z,21.43
2023-05-13T21:48:49.932Z,22.83
2023-05-13T21:51:18.592Z,22.63
2023-05-13T21:53:46.833Z,24.57
2023-05-13T21:56:15.153Z,21.67
2023-05-13T21:58:44.554Z,23.83
2023-05-13T22:01:12.989Z,20.30
2023-05-13T22:03:42.740Z,24.37
2023-05-13T22:06:11.279Z,22.00
2023-05-13T22:08:39.553Z,21.17
2023-05-13T22:11:08.202Z,21.87
2023-05-13T22:13:36.596Z,25.57
2023-05-13T22:16:05.247Z,27.80
2023-05-13T22:18:34.852Z,25.27
2023-05-13T22:21:05.751Z,22.90
2023-05-13T22:23:35.207Z,26.20
2023-05-13T22:26:03.881Z,24.57
2023-05-13T22:28:32.111Z,20.30
2023-05-13T22:31:00.476Z,22.20
2023-05-13T22:33:28.711Z,20.00
2023-05-13T22:35:56.873Z,22.13
2023-05-13T22:38:26.411Z,23.23
2023-05-13T22:40:54.604Z,22.03
2023-05-13T22:43:22.805Z,22.77
2023-05-13T22:45:51.105Z,25.27
2023-05-13T22:48:19.349Z,22.40
2023-05-13T22:50:47.767Z,21.13
2023-05-13T22:53:16.630Z,22.53
2023-05-13T22:55:46.240Z,26.60
2023-05-13T22:58:14.464Z,24.73
2023-05-13T23:00:42.951Z,27.13
2023-05-13T23:03:11.197Z,25.60
2023-05-13T23:05:39.556Z,23.30
2023-05-13T23:08:07.768Z,24.47
2023-05-13T23:10:36.013Z,21.40
2023-05-13T23:13:06.308Z,24.60
2023-05-13T23:15:36.044Z,21.13
2023-05-13T23:18:04.268Z,23.70
2023-05-13T23:20:32.505Z,22.00
2023-05-13T23:23:00.694Z,23.90
2023-05-13T23:25:29.774Z,22.80
2023-05-13T23:27:58.204Z,26.33
2023-05-13T23:30:27.811Z,30.87
2023-05-13T23:32:56.153Z,24.20
2023-05-13T23:35:24.357Z,27.57
2023-05-13T23:37:52.538Z,24.80
2023-05-13T23:40:21.012Z,24.33
2023-05-13T23:42:49.368Z,28.13
2023-05-13T23:45:17.865Z,22.97
2023-05-13T23:47:47.508Z,26.83
2023-05-13T23:50:15.678Z,21.57
2023-05-13T23:52:43.839Z,23.50
2023-05-13T23:55:12.418Z,25.40
2023-05-13T23:57:40.657Z,29.63
